createdAt,value
2022-09-13T00:01:19.702Z,10.12
2022-09-13T00:03:48.392Z,10.28
2022-09-13T00:06:20.134Z,10.25
2022-09-13T00:08:49.908Z,10.26
2022-09-13T00:11:25.358Z,10.26
2022-09-13T00:13:54.732Z,10.54
2022-09-13T00:16:27.311Z,10.72
2022-09-13T00:18:56.954Z,10.87
2022-09-13T00:21:25.922Z,10.59
2022-09-13T00:23:55.758Z,10.72
2022-09-13T00:26:28.402Z,10.68
2022-09-13T00:28:59.425Z,10.74
2022-09-13T00:31:29.621Z,10.87
2022-09-13T00:34:00.830Z,10.41
2022-09-13T00:36:29.544Z,10.54
2022-09-13T00:38:58.264Z,10.52
2022-09-13T00:41:26.190Z,9.81
2022-09-13T00:44:00.464Z,10.05
2022-09-13T00:46:51.482Z,10.44
2022-09-13T00:49:53.143Z,10.25
2022-09-13T00:52:26.726Z,10.05
2022-09-13T00:55:50.997Z,10.20
2022-09-13T00:58:47.290Z,10.39
2022-09-13T01:01:18.158Z,10.05
2022-09-13T01:03:50.365Z,9.64
2022-09-13T01:06:25.858Z,10.06
2022-09-13T01:08:55.053Z,9.95
2022-09-13T01:11:36.301Z,9.71
2022-09-13T01:14:07.033Z,9.81
2022-09-13T01:16:35.302Z,10.14
2022-09-13T01:19:04.139Z,9.66
2022-09-13T01:22:25.828Z,9.92
2022-09-13T01:25:35.377Z,9.54
2022-09-13T01:28:38.378Z,9.60
2022-09-13T01:31:40.998Z,10.00
2022-09-13T01:34:32.548Z,9.82
2022-09-13T01:37:27.302Z,10.01
2022-09-13T01:40:13.260Z,9.95
2022-09-13T01:43:11.069Z,9.81
2022-09-13T01:45:51.310Z,9.71
2022-09-13T01:49:41.539Z,9.82
2022-09-13T01:52:43.320Z,9.58
2022-09-13T01:55:39.443Z,9.35
2022-09-13T01:58:43.227Z,9.18
2022-09-13T02:01:18.338Z,8.92
2022-09-13T02:04:15.632Z,9.34
2022-09-13T02:07:35.852Z,9.61
2022-09-13T02:10:14.800Z,9.01
2022-09-13T02:12:44.868Z,8.85
2022-09-13T02:15:51.569Z,8.66
2022-09-13T02:18:35.965Z,8.73
2022-09-13T02:21:27.251Z,8.71
2022-09-13T02:24:29.058Z,8.71
2022-09-13T02:27:04.216Z,8.55
2022-09-13T02:29:37.692Z,8.41
2022-09-13T02:32:19.210Z,8.72
2022-09-13T02:35:22.295Z,8.62
2022-09-13T02:38:05.574Z,8.81
2022-09-13T02:40:47.780Z,8.90
2022-09-13T02:43:33.328Z,8.68
2022-09-13T02:46:28.405Z,8.70
2022-09-13T02:49:31.927Z,8.75
2022-09-13T02:52:34.405Z,9.06
2022-09-13T02:55:22.077Z,8.81
2022-09-13T02:58:16.422Z,8.81
2022-09-13T03:00:45.235Z,8.54
2022-09-13T03:03:16.568Z,8.54
2022-09-13T03:05:45.746Z,8.82
2022-09-13T03:08:16.942Z,8.77
2022-09-13T03:11:11.703Z,8.79
2022-09-13T03:14:32.880Z,8.63
2022-09-13T03:17:58.830Z,8.59
2022-09-13T03:21:15.151Z,8.73
2022-09-13T03:24:36.824Z,8.52
2022-09-13T03:27:41.580Z,7.99
2022-09-13T03:30:13.959Z,7.89
2022-09-13T03:33:39.856Z,7.95
2022-09-13T03:36:27.493Z,7.79
2022-09-13T03:39:33.826Z,7.96
2022-09-13T03:42:42.962Z,8.36
2022-09-13T03:45:15.285Z,7.84
2022-09-13T03:47:46.642Z,7.90
2022-09-13T03:50:24.330Z,7.58
2022-09-13T03:53:02.573Z,7.65
2022-09-13T03:55:33.725Z,7.73
2022-09-13T03:58:01.523Z,8.09
2022-09-13T04:00:30.089Z,7.87
2022-09-13T04:02:58.615Z,7.45
2022-09-13T04:05:27.161Z,7.57
2022-09-13T04:07:54.818Z,7.51
2022-09-13T04:10:24.480Z,8.10
2022-09-13T04:12:56.027Z,7.87
2022-09-13T04:15:24.881Z,8.42
2022-09-13T04:17:52.839Z,8.05
2022-09-13T04:20:20.887Z,8.08
2022-09-13T04:22:54.903Z,8.05
2022-09-13T04:25:24.595Z,7.97
2022-09-13T04:28:00.137Z,7.88
2022-09-13T04:30:29.616Z,7.82
2022-09-13T04:32:59.723Z,7.97
2022-09-13T04:35:29.008Z,8.03
2022-09-13T04:38:00.462Z,8.01
2022-09-13T04:40:29.209Z,7.86
2022-09-13T04:42:56.879Z,7.82
2022-09-13T04:45:25.410Z,7.83
2022-09-13T04:47:56.626Z,7.94
2022-09-13T04:50:25.893Z,8.02
2022-09-13T04:52:56.196Z,7.80
2022-09-13T04:55:26.184Z,7.84
2022-09-13T04:57:56.605Z,7.99
2022-09-13T05:00:26.381Z,8.18
2022-09-13T05:02:57.807Z,8.22
2022-09-13T05:05:28.919Z,8.22
2022-09-13T05:07:57.496Z,8.48
2022-09-13T05:10:26.130Z,8.52
2022-09-13T05:12:55.845Z,8.72
2022-09-13T05:15:24.426Z,9.01
2022-09-13T05:17:53.820Z,8.99
2022-09-13T05:20:23.296Z,9.19
2022-09-13T05:22:52.005Z,8.98
2022-09-13T05:25:25.411Z,9.11
2022-09-13T05:27:54.635Z,9.36
2022-09-13T05:30:23.434Z,9.37
2022-09-13T05:32:51.996Z,9.50
2022-09-13T05:35:20.623Z,9.57
2022-09-13T05:37:50.686Z,9.79
2022-09-13T05:40:19.408Z,10.01
2022-09-13T05:42:47.194Z,10.08
2022-09-13T05:45:14.946Z,10.62
2022-09-13T05:47:43.464Z,10.53
2022-09-13T05:50:22.271Z,10.84
2022-09-13T05:52:59.451Z,11.24
2022-09-13T05:55:28.012Z,11.74
2022-09-13T05:57:56.824Z,11.89
2022-09-13T06:00:25.531Z,11.94
2022-09-13T06:02:54.129Z,11.97
2022-09-13T06:05:22.844Z,12.04
2022-09-13T06:07:51.351Z,12.85
2022-09-13T06:10:20.539Z,14.97
2022-09-13T06:12:51.638Z,16.31
2022-09-13T06:15:20.239Z,18.07
2022-09-13T06:17:47.952Z,14.97
2022-09-13T06:20:16.498Z,17.64
2022-09-13T06:22:44.182Z,21.39
2022-09-13T06:25:12.594Z,20.47
2022-09-13T06:27:41.049Z,22.17
2022-09-13T06:30:13.157Z,19.15
2022-09-13T06:32:41.132Z,16.97
2022-09-13T06:35:09.901Z,15.70
2022-09-13T06:37:38.310Z,16.00
2022-09-13T06:40:07.489Z,15.83
2022-09-13T06:42:37.235Z,15.88
2022-09-13T06:45:06.539Z,16.07
2022-09-13T06:47:34.327Z,16.15
2022-09-13T06:50:02.362Z,16.27
2022-09-13T06:52:30.031Z,16.18
2022-09-13T06:54:59.068Z,16.19
2022-09-13T06:57:31.276Z,16.35
2022-09-13T06:59:58.913Z,16.92
2022-09-13T07:02:27.443Z,16.66
2022-09-13T07:04:55.145Z,16.84
2022-09-13T07:07:23.599Z,17.20
2022-09-13T07:09:52.072Z,17.87
2022-09-13T07:12:21.574Z,17.80
2022-09-13T07:14:49.337Z,18.27
2022-09-13T07:17:17.013Z,22.40
2022-09-13T07:19:45.413Z,19.56
2022-09-13T07:22:13.848Z,18.70
2022-09-13T07:24:42.304Z,18.64
2022-09-13T07:27:10.281Z,18.76
2022-09-13T07:29:39.726Z,18.81
2022-09-13T07:32:09.134Z,19.29
2022-09-13T07:34:38.545Z,19.22
2022-09-13T07:37:07.950Z,18.61
2022-09-13T07:39:37.336Z,19.10
2022-09-13T07:42:05.264Z,19.37
2022-09-13T07:44:32.915Z,19.38
2022-09-13T07:47:00.666Z,19.78
2022-09-13T07:49:28.286Z,19.34
2022-09-13T07:51:55.957Z,19.43
2022-09-13T07:54:28.273Z,19.64
2022-09-13T07:56:57.673Z,20.16
2022-09-13T07:59:30.186Z,19.21
2022-09-13T08:01:58.865Z,19.85
2022-09-13T08:04:27.072Z,20.08
2022-09-13T08:06:54.771Z,19.56
2022-09-13T08:09:23.198Z,19.67
2022-09-13T08:11:53.559Z,20.32
2022-09-13T08:14:24.359Z,20.30
2022-09-13T08:16:57.400Z,20.42
2022-09-13T08:19:27.919Z,19.72
2022-09-13T08:21:57.321Z,20.34
2022-09-13T08:24:27.112Z,21.02
2022-09-13T08:26:56.738Z,20.25
2022-09-13T08:29:26.230Z,21.07
2022-09-13T08:31:55.678Z,20.92
2022-09-13T08:34:25.739Z,20.97
2022-09-13T08:36:55.164Z,21.03
2022-09-13T08:39:24.914Z,20.55
2022-09-13T08:42:34.127Z,20.54
2022-09-13T08:45:02.887Z,20.99
2022-09-13T08:47:57.697Z,21.03
2022-09-13T08:50:39.058Z,21.34
2022-09-13T08:53:30.636Z,20.77
2022-09-13T08:56:39.041Z,21.32
2022-09-13T08:59:47.652Z,21.67
2022-09-13T09:02:45.362Z,21.05
2022-09-13T09:05:24.968Z,21.13
2022-09-13T09:08:34.444Z,21.40
2022-09-13T09:11:26.619Z,20.60
2022-09-13T09:14:27.332Z,21.67
2022-09-13T09:17:07.393Z,20.92
2022-09-13T09:20:45.471Z,21.12
2022-09-13T09:23:52.136Z,21.21
2022-09-13T09:26:30.563Z,20.97
2022-09-13T09:29:25.048Z,21.95
2022-09-13T09:33:01.727Z,21.15
2022-09-13T09:36:03.328Z,21.76
2022-09-13T09:38:44.846Z,21.88
2022-09-13T09:41:32.865Z,21.23
2022-09-13T09:44:31.544Z,21.23
2022-09-13T09:47:14.612Z,22.12
2022-09-13T09:50:12.099Z,21.95
2022-09-13T09:53:11.824Z,22.13
2022-09-13T09:56:20.207Z,21.99
2022-09-13T09:58:50.603Z,21.39
2022-09-13T10:01:35.328Z,21.66
2022-09-13T10:04:22.268Z,22.41
2022-09-13T10:07:27.154Z,21.79
2022-09-13T10:10:08.608Z,22.12
2022-09-13T10:12:40.716Z,21.64
2022-09-13T10:15:22.918Z,22.32
2022-09-13T10:18:42.241Z,22.29
2022-09-13T10:21:19.311Z,22.29
2022-09-13T10:23:50.994Z,22.52
2022-09-13T10:26:25.633Z,22.75
2022-09-13T10:29:16.419Z,22.70
2022-09-13T10:31:50.656Z,22.67
2022-09-13T10:34:35.917Z,22.52
2022-09-13T10:37:19.482Z,22.46
2022-09-13T10:40:17.136Z,21.74
2022-09-13T10:43:05.511Z,22.28
2022-09-13T10:45:35.092Z,22.22
2022-09-13T10:48:17.760Z,22.48
2022-09-13T10:51:23.146Z,21.78
2022-09-13T10:54:21.621Z,22.39
2022-09-13T10:56:52.158Z,21.41
2022-09-13T10:59:30.205Z,22.01
2022-09-13T11:02:19.887Z,22.49
2022-09-13T11:05:07.218Z,22.37
2022-09-13T11:08:38.839Z,22.74
2022-09-13T11:11:53.673Z,23.14
2022-09-13T11:14:56.778Z,22.65
2022-09-13T11:18:01.070Z,23.42
2022-09-13T11:21:04.294Z,22.95
2022-09-13T11:24:25.941Z,22.74
2022-09-13T11:27:46.207Z,22.52
2022-09-13T11:30:25.322Z,22.79
2022-09-13T11:33:20.283Z,22.71
2022-09-13T11:37:03.492Z,22.65
2022-09-13T11:39:42.411Z,22.02
2022-09-13T11:43:03.367Z,22.02
2022-09-13T11:46:11.459Z,22.03
2022-09-13T11:49:36.304Z,22.40
2022-09-13T11:52:34.141Z,22.61
2022-09-13T11:56:10.723Z,23.08
2022-09-13T11:59:35.432Z,22.93
2022-09-13T12:02:32.240Z,22.38
2022-09-13T12:05:22.167Z,22.64
2022-09-13T12:08:23.656Z,22.58
2022-09-13T12:11:23.678Z,22.96
2022-09-13T12:14:01.217Z,23.15
2022-09-13T12:16:51.292Z,22.58
2022-09-13T12:19:35.328Z,23.17
2022-09-13T12:22:04.745Z,23.27
2022-09-13T12:24:55.212Z,23.17
2022-09-13T12:28:16.409Z,23.16
2022-09-13T12:31:20.286Z,23.05
2022-09-13T12:33:50.664Z,23.15
2022-09-13T12:37:20.562Z,23.03
2022-09-13T12:40:34.649Z,22.84
2022-09-13T12:44:12.333Z,22.40
2022-09-13T12:47:22.936Z,22.71
2022-09-13T12:50:46.903Z,22.67
2022-09-13T12:53:44.877Z,22.57
2022-09-13T12:56:56.841Z,22.54
2022-09-13T13:00:15.085Z,22.56
2022-09-13T13:02:57.752Z,22.47
2022-09-13T13:05:39.022Z,23.06
2022-09-13T13:08:27.299Z,22.93
2022-09-13T13:11:07.243Z,22.97
2022-09-13T13:14:02.506Z,22.79
2022-09-13T13:16:40.866Z,22.77
2022-09-13T13:19:32.663Z,22.79
2022-09-13T13:22:44.328Z,23.25
2022-09-13T13:25:39.238Z,23.38
2022-09-13T13:28:45.915Z,23.09
2022-09-13T13:31:30.232Z,22.97
2022-09-13T13:34:10.016Z,23.29
2022-09-13T13:36:43.722Z,23.32
2022-09-13T13:39:24.307Z,23.09
2022-09-13T13:42:27.749Z,22.94
2022-09-13T13:45:21.620Z,22.97
2022-09-13T13:48:15.710Z,22.99
2022-09-13T13:51:13.131Z,23.34
2022-09-13T13:58:22.675Z,23.19
2022-09-13T14:00:55.236Z,22.75
2022-09-13T14:04:06.030Z,23.28
2022-09-13T14:07:28.948Z,23.56
2022-09-13T14:10:23.279Z,23.39
2022-09-13T14:13:43.951Z,23.17
2022-09-13T14:17:29.638Z,23.30
2022-09-13T14:20:14.047Z,23.22
2022-09-13T14:22:43.569Z,23.27
2022-09-13T14:25:23.700Z,23.35
2022-09-13T14:27:59.390Z,23.02
2022-09-13T14:30:39.590Z,23.09
2022-09-13T14:33:31.554Z,23.15
2022-09-13T14:36:20.462Z,23.17
2022-09-13T14:39:00.858Z,23.27
2022-09-13T14:41:38.600Z,22.88
2022-09-13T14:44:28.794Z,23.07
2022-09-13T14:47:38.177Z,23.04
2022-09-13T14:50:19.396Z,23.06
2022-09-13T14:53:02.493Z,22.99
2022-09-13T14:55:40.683Z,22.84
2022-09-13T14:58:28.959Z,23.00
2022-09-13T15:01:10.669Z,22.92
2022-09-13T15:03:44.477Z,22.83
2022-09-13T15:06:30.796Z,23.08
2022-09-13T15:09:12.333Z,22.72
2022-09-13T15:12:01.823Z,22.74
2022-09-13T15:14:32.826Z,22.86
2022-09-13T15:17:14.354Z,22.94
2022-09-13T15:19:53.689Z,23.14
2022-09-13T15:22:35.580Z,22.88
2022-09-13T15:25:05.855Z,22.94
2022-09-13T15:27:47.635Z,23.03
2022-09-13T15:30:38.112Z,22.79
2022-09-13T15:33:27.476Z,23.00
2022-09-13T15:36:19.135Z,22.73
2022-09-13T15:39:08.377Z,22.44
2022-09-13T15:41:41.368Z,22.34
2022-09-13T15:44:10.897Z,22.41
2022-09-13T15:47:12.358Z,22.26
2022-09-13T15:49:42.149Z,22.05
2022-09-13T15:52:11.785Z,22.05
2022-09-13T15:54:43.920Z,21.90
2022-09-13T15:57:27.557Z,21.97
2022-09-13T16:00:02.692Z,21.80
2022-09-13T16:02:36.070Z,21.74
2022-09-13T16:05:07.350Z,21.48
2022-09-13T16:07:36.742Z,21.46
2022-09-13T16:10:20.490Z,21.46
2022-09-13T16:12:50.309Z,21.38
2022-09-13T16:15:19.791Z,21.38
2022-09-13T16:17:49.194Z,21.49
2022-09-13T16:20:17.849Z,21.31
2022-09-13T16:22:46.438Z,21.14
2022-09-13T16:25:16.224Z,21.13
2022-09-13T16:27:46.348Z,21.02
2022-09-13T16:30:20.013Z,20.91
2022-09-13T16:32:50.026Z,20.72
2022-09-13T16:35:19.659Z,20.65
2022-09-13T16:37:51.874Z,20.57
2022-09-13T16:40:20.925Z,20.39
2022-09-13T16:42:50.844Z,20.24
2022-09-13T16:45:20.372Z,20.00
2022-09-13T16:47:49.979Z,20.01
2022-09-13T16:50:19.948Z,19.77
2022-09-13T16:52:49.366Z,19.82
2022-09-13T16:55:18.950Z,19.44
2022-09-13T17:04:49.178Z,18.96
2022-09-13T17:07:19.165Z,18.78
2022-09-13T17:09:47.341Z,18.64
2022-09-13T17:12:15.617Z,18.43
2022-09-13T17:14:45.516Z,18.30
2022-09-13T17:17:17.935Z,18.26
2022-09-13T17:19:49.478Z,18.13
2022-09-13T17:22:19.723Z,18.14
2022-09-13T17:24:49.211Z,18.08
2022-09-13T17:27:19.293Z,17.95
2022-09-13T17:29:46.954Z,17.91
2022-09-13T17:32:16.654Z,17.77
2022-09-13T17:34:46.052Z,17.63
2022-09-13T17:37:13.700Z,17.59
2022-09-13T17:39:43.169Z,17.22
2022-09-13T17:42:10.864Z,17.33
2022-09-13T17:44:40.544Z,17.14
2022-09-13T17:47:10.414Z,16.99
2022-09-13T17:49:39.966Z,16.96
2022-09-13T17:52:09.893Z,16.95
2022-09-13T17:54:39.443Z,16.78
2022-09-13T17:57:07.135Z,16.66
2022-09-13T17:59:35.161Z,16.57
2022-09-13T18:02:02.885Z,16.69
2022-09-13T18:04:30.793Z,16.67
2022-09-13T18:07:00.253Z,16.50
2022-09-13T18:09:28.067Z,16.43
2022-09-13T18:11:55.869Z,16.40
2022-09-13T18:14:24.474Z,16.53
2022-09-13T18:16:56.026Z,16.53
2022-09-13T18:19:44.821Z,16.49
2022-09-13T18:22:15.609Z,16.40
2022-09-13T18:24:45.535Z,16.30
2022-09-13T18:27:13.915Z,15.97
2022-09-13T18:29:42.726Z,15.80
2022-09-13T18:32:11.191Z,15.80
2022-09-13T18:34:42.309Z,15.57
2022-09-13T18:37:10.154Z,15.68
2022-09-13T18:39:39.102Z,15.48
2022-09-13T18:42:10.419Z,15.62
2022-09-13T18:44:39.906Z,15.52
2022-09-13T18:47:08.960Z,15.49
2022-09-13T18:49:37.782Z,15.37
2022-09-13T18:52:11.166Z,15.44
2022-09-13T18:54:39.858Z,15.55
2022-09-13T18:57:08.469Z,15.49
2022-09-13T18:59:37.099Z,15.54
2022-09-13T19:02:06.602Z,15.47
2022-09-13T19:04:36.302Z,15.25
2022-09-13T19:07:07.154Z,15.12
2022-09-13T19:09:37.626Z,15.22
2022-09-13T19:12:07.561Z,15.27
2022-09-13T19:14:35.344Z,15.35
2022-09-13T19:17:04.812Z,15.14
2022-09-13T19:19:35.673Z,15.25
2022-09-13T19:22:03.490Z,15.30
2022-09-13T19:24:31.979Z,15.27
2022-09-13T19:26:59.675Z,15.34
2022-09-13T19:29:29.067Z,15.18
2022-09-13T19:31:59.081Z,15.04
2022-09-13T19:34:27.644Z,14.84
2022-09-13T19:36:58.367Z,14.73
2022-09-13T19:39:30.034Z,14.80
2022-09-13T19:42:03.363Z,14.67
2022-09-13T19:44:31.999Z,14.59
2022-09-13T19:47:44.857Z,14.68
2022-09-13T19:49:50.480Z,14.90
2022-09-13T19:52:19.100Z,15.06
2022-09-13T19:54:47.723Z,15.32
2022-09-13T19:57:16.353Z,15.04
2022-09-13T19:59:44.906Z,14.88
2022-09-13T20:02:13.610Z,14.70
2022-09-13T20:04:42.209Z,14.83
2022-09-13T20:07:13.464Z,14.89
2022-09-13T20:09:42.543Z,15.03
2022-09-13T20:12:11.651Z,14.97
2022-09-13T20:14:40.338Z,15.06
2022-09-13T20:17:08.927Z,15.11
2022-09-13T20:19:42.461Z,14.91
2022-09-13T20:22:12.297Z,14.36
2022-09-13T20:24:40.781Z,14.58
2022-09-13T20:27:10.210Z,14.82
2022-09-13T20:29:38.670Z,14.54
2022-09-13T20:32:08.107Z,14.37
2022-09-13T20:34:37.888Z,14.59
2022-09-13T20:37:05.837Z,14.75
2022-09-13T20:39:34.366Z,14.77
2022-09-13T20:42:04.052Z,14.94
2022-09-13T20:44:31.761Z,14.98
2022-09-13T20:47:00.401Z,15.01
2022-09-13T20:49:29.744Z,14.89
2022-09-13T20:51:58.839Z,15.04
2022-09-13T20:54:27.412Z,14.99
2022-09-13T20:56:55.946Z,15.10
2022-09-13T20:59:24.403Z,15.10
2022-09-13T21:01:52.126Z,15.25
2022-09-13T21:04:19.936Z,15.30
2022-09-13T21:07:06.961Z,15.36
2022-09-13T21:09:36.608Z,15.36
2022-09-13T21:12:09.064Z,15.47
2022-09-13T21:14:37.603Z,15.50
2022-09-13T21:17:07.871Z,15.48
2022-09-13T21:19:36.484Z,15.47
2022-09-13T21:22:04.338Z,15.43
2022-09-13T21:24:32.032Z,15.62
2022-09-13T21:26:59.982Z,15.71
2022-09-13T21:29:29.121Z,15.63
2022-09-13T21:31:57.028Z,15.75
2022-09-13T21:34:27.454Z,15.79
2022-09-13T21:36:59.499Z,15.97
2022-09-13T21:39:27.318Z,16.06
2022-09-13T21:41:54.981Z,15.93
2022-09-13T21:44:22.836Z,15.82
2022-09-13T21:46:51.751Z,15.91
2022-09-13T21:49:20.288Z,16.01
2022-09-13T21:51:50.056Z,16.36
2022-09-13T21:54:20.411Z,16.53
2022-09-13T21:56:54.243Z,16.74
2022-09-13T21:59:23.896Z,16.85
2022-09-13T22:01:54.221Z,17.01
2022-09-13T22:04:27.601Z,17.05
2022-09-13T22:06:56.204Z,17.20
2022-09-13T22:09:27.782Z,17.18
2022-09-13T22:11:57.700Z,17.26
2022-09-13T22:14:28.838Z,17.37
2022-09-13T22:17:01.797Z,17.51
2022-09-13T22:19:32.071Z,17.49
2022-09-13T22:22:00.897Z,17.43
2022-09-13T22:24:32.347Z,17.46
2022-09-13T22:27:04.063Z,17.45
2022-09-13T22:29:33.624Z,17.45
2022-09-13T22:32:03.560Z,17.53
2022-09-13T22:34:35.050Z,17.45
2022-09-13T22:37:04.536Z,17.38
2022-09-13T22:39:33.982Z,17.33
2022-09-13T22:42:03.815Z,17.36
2022-09-13T22:44:32.598Z,17.32
2022-09-13T22:47:00.588Z,17.37
2022-09-13T22:49:28.208Z,17.37
2022-09-13T22:51:57.605Z,17.44
2022-09-13T22:54:28.641Z,17.40
2022-09-13T22:56:58.320Z,17.39
2022-09-13T22:59:26.466Z,17.30
2022-09-13T23:01:54.315Z,17.44
2022-09-13T23:04:22.116Z,17.34
2022-09-13T23:06:49.908Z,17.28
2022-09-13T23:09:19.392Z,17.15
2022-09-13T23:11:48.042Z,17.11
2022-09-13T23:14:20.210Z,17.13
2022-09-13T23:16:51.911Z,17.09
2022-09-13T23:19:23.533Z,16.97
2022-09-13T23:21:53.888Z,16.87
2022-09-13T23:24:25.069Z,16.93
2022-09-13T23:26:56.722Z,16.84
2022-09-13T23:29:24.526Z,16.86
2022-09-13T23:31:52.309Z,16.68
2022-09-13T23:34:22.688Z,16.63
2022-09-13T23:36:52.622Z,16.72
2022-09-13T23:39:23.776Z,16.70
2022-09-13T23:41:51.900Z,16.63
2022-09-13T23:44:19.709Z,16.57
2022-09-13T23:46:49.764Z,16.59
2022-09-13T23:49:17.938Z,16.49
2022-09-13T23:51:45.760Z,16.63
2022-09-13T23:54:16.053Z,16.58
2022-09-13T23:56:44.670Z,16.49
2022-09-13T23:59:14.224Z,16.60
